ADDS METAR Data INFO
IDs: Format: Raw Decoded Include TAF

Data at: 1408 UTC 12 Dec 2017

KHAO 121353Z AUTO 32015G21KT 5SM -SN FEW022 BKN028 OVC055 M02/M05 A2994 RMK AO2 SLP143 P0000 T10171050
KHAO 121327Z AUTO 32014G22KT 6SM -SN SCT018 BKN025 OVC032 M01/M03 A2992 RMK AO2 P0000 T10061033
KHAO 121312Z AUTO 30019G25KT 2SM -SN SCT018 BKN029 OVC060 M01/M03 A2991 RMK AO2 VIS 1V5 P0000 T10061033
KHAO 121253Z AUTO 30013G19KT 8SM -SN FEW019 BKN046 OVC060 00/M03 A2991 RMK AO2 SLP132 P0000 T00001028
KHAO 121251Z AUTO 30013G19KT 7SM -SN FEW019 BKN047 OVC060 00/M03 A2990 RMK AO2 P0000
KHAO 121153Z AUTO 29012G18KT 6SM -SN BR BKN019 BKN026 OVC033 01/M01 A2988 RMK AO2 SNB43 SLP123 P0000 60000 T00061011 10050 20006 53020
KHAO 121110Z AUTO 30014G20KT 10SM SCT015 OVC025 01/M01 A2986 RMK AO2 T00111011
KHAO 121053Z AUTO 30014G20KT 7SM BKN014 OVC022 01/M01 A2985 RMK AO2 RAB0954E02B30E45 SLP115 P0000 T00111006
KHAO 120953Z AUTO 29010KT 3SM BR OVC011 02/01 A2983 RMK AO2 SLP105 T00170006
KHAO 120853Z AUTO 29010KT 6SM HZ OVC013 02/M01 A2982 RMK AO2 SLP101 T00221006 51024
KHAO 120830Z AUTO 28011KT 7SM OVC014 02/M01 A2982 RMK AO2 T00221006
KHAO 120753Z AUTO 31015G20KT 8SM OVC018 03/M01 A2981 RMK AO2 PK WND 31029/0714 SLP099 T00281011
KHAO 120706Z AUTO 29015G22KT 10SM BKN025 OVC050 04/M02 A2979 RMK AO2 T00391017
KHAO 120653Z AUTO 29013G22KT 10SM FEW027 BKN055 OVC075 04/M02 A2978 RMK AO2 SLP087 T00391017
KHAO 120553Z AUTO 27011G20KT 10SM FEW038 05/M02 A2975 RMK AO2 SLP076 T00501022 10067 20011 53015
KHAO 120453Z AUTO 27015G21KT 10SM OVC050 06/M02 A2973 RMK AO2 PK WND 29028/0414 SLP069 T00611022 400831089
KHAO 120353Z AUTO 27009G16KT 10SM OVC050 07/M02 A2970 RMK AO2 SLP063 T00671022
KHAO 120253Z AUTO 26008KT 10SM FEW070 06/M02 A2970 RMK AO2 SLP062 T00611017 55006
KHAO 120153Z AUTO 21006KT 10SM SCT120 05/M01 A2969 RMK AO2 SLP057 T00501011
KHAO 120053Z AUTO 10003KT 10SM CLR 02/M02 A2969 RMK AO2 SLP062 T00171022
KHAO 112353Z AUTO 09004KT 10SM CLR 03/M02 A2972 RMK AO2 SLP070 T00281017 10083 20022 56025
KHAO 112253Z AUTO 00000KT 10SM CLR 04/M02 A2976 RMK AO2 SLP083 T00391022
KHAO 112153Z AUTO 00000KT 10SM CLR 07/M02 A2975 RMK AO2 SLP080 T00671022
KHAO 112053Z AUTO 16003KT 10SM CLR 07/M02 A2979 RMK AO2 SLP095 T00721022 56047
KHAO 111953Z AUTO VRB03KT 10SM CLR 07/M02 A2984 RMK AO2 SLP111 T00671022
KHAO 111853Z AUTO 20005KT 10SM CLR 06/M03 A2987 RMK AO2 SLP122 T00561028
KHAO 111753Z AUTO 21008KT 10SM CLR 05/M03 A2993 RMK AO2 PRESFR SLP142 T00501028 10056 21083 58042
KHAO 111653Z AUTO 24010G14KT 10SM CLR 04/M03 A3000 RMK AO2 SLP165 T00441028
KHAO 111553Z AUTO VRB03KT 10SM CLR 01/M03 A3003 RMK AO2 SLP175 T00111033
KHAO 111453Z AUTO 00000KT 9SM OVC095 M01/M03 A3006 RMK AO2 SLP187 T10111028 58013
KHAO 111353Z AUTO 00000KT 9SM OVC100 M03/M04 A3008 RMK AO2 SLP195 T10331044
KHAO 111253Z AUTO 00000KT 9SM BKN100 M05/M06 A3011 RMK AO2 SLP204 T10501061
KHAO 111153Z AUTO 00000KT 8SM CLR M08/M09 A3010 RMK AO2 SLP202 I1000 I6000 T10831094 11033 21089 58001
KHAO 111053Z AUTO 00000KT 10SM CLR M08/M09 A3011 RMK AO2 SLP203 I1000 T10831094
KHAO 110953Z AUTO 00000KT 10SM CLR M08/M08 A3011 RMK AO2 SLP204 I1000 T10781083
KHAO 110853Z AUTO 00000KT 10SM CLR M07/M09 A3010 RMK AO2 SLP201 I1000 I3000 T10721089 51007
KHAO 110753Z AUTO 00000KT 10SM CLR M07/M08 A3010 RMK AO2 SLP201 T10671078
KHAO 110653Z AUTO 27003KT 10SM CLR M04/M06 A3010 RMK AO2 SLP200 T10441061
KHAO 110553Z AUTO 29003KT 10SM CLR M04/M07 A3008 RMK AO2 SLP194 T10441072 11006 21044 51013
KHAO 110453Z AUTO 26004KT 10SM CLR M02/M06 A3007 RMK AO2 SLP191 T10221061 400221061
KHAO 110353Z AUTO 25006KT 10SM CLR M01/M06 A3006 RMK AO2 SLP185 T10111061
KHAO 110253Z AUTO 27003KT 10SM CLR M04/M07 A3004 RMK AO2 SLP182 T10391067 51004